Snake Valley, Nevada Weather observations

Data are for 10 minute period ending at time listed.
 Day   Time   Solar   Ave.   Ave.  Ave.  Vector  Max.   Baro.   Total    
  of    of     Rad.   Air    Rel.  Wind   Wind   Wind  Press.  Precip.   
Year   Day            Temp.  Hum.  Speed  Dir.   Gust                    
2015   (PST)  Kw/m2    F      %     mph   deg.    mph    mb.     in.     
-------------------------------------------------------------------------
 179   15:50   0.37   92.6    18    5.2    42     9.1   841.0    0.00 
 179   16:00   0.56   93.3    20    5.2    72     8.3   841.0    0.00 
 179   16:10   0.32   96.2    13    2.0   107     5.8   840.9    0.00 
 179   16:20   0.30   97.1    13    2.8    71     6.1   840.9    0.00 
 179   16:30   0.19   92.9    23    2.6    64     5.4   840.9    0.00 
 179   16:40   0.18   93.1    15    2.1   104     3.9   840.8    0.00 
 179   16:50   0.18   94.5    17    2.4    75     4.0   840.8    0.00 
 179   17:00   0.18   92.0    20    2.8    50     5.6   840.8    0.00 
 179   17:10   0.27   94.7    13    0.3    33     1.5   840.8    0.00 
 179   17:20   0.21   96.8    15    1.8   227     2.9   840.8    0.00 
 179   17:30   0.28   96.7    12    2.3   231     3.4   840.9    0.00 
 179   17:40   0.21   97.1    12    1.9   263     2.5   840.9    0.00 
 179   17:50   0.17   96.3    16    2.4   202     3.8   840.9    0.00 
 179   18:00   0.18   95.3    14    8.2   170    20.5   840.9    0.00 
 179   18:10   0.12   94.6    12    7.5   178    12.3   841.1    0.00 
 179   18:20   0.06   94.4    12    4.8   205    12.8   841.2    0.00 
 179   18:30   0.03   92.0    14    3.5   188     6.5   841.2    0.00 
 179   18:40   0.02   89.2    19    3.0   197     4.5   841.2    0.00 
 179   18:50   0.01   87.5    21    3.0   208     4.5   841.2    0.00 
 179   19:00   0.00   86.3    25    2.4   192     4.6   841.2    0.00 
 179   19:10   0.00   86.3    20    8.0   138    16.4   841.2    0.00 
 179   19:20   0.00   88.8    15   11.3   152    17.8   841.4    0.00 
 179   19:30   0.00   87.5    17   15.9   145    24.3   841.5    0.00 
 179   19:40   0.00   87.7    16   16.3   156    23.5   841.6    0.00 
 179   19:50   0.00   87.6    16   12.2   158    18.3   841.6    0.00 
 179   20:00   0.00   86.4    18   10.8   149    14.5   841.6    0.00 
 179   20:10   0.00   85.8    18   12.6   145    18.9   841.7    0.00 
 179   20:20   0.00   86.2    18   12.5   156    18.1   841.8    0.00 
 179   20:30   0.00   86.3    17   11.6   166    18.9   841.8    0.00 
 179   20:40   0.00   87.6    15    9.3   171    15.2   842.0    0.00 
 179   20:50   0.00   86.9    16    6.8   170    11.5   842.0    0.00 
 179   21:00   0.00   85.5    18    6.7   212    10.8   842.1    0.00 
 179   21:10   0.00   85.2    20    5.9   264    11.1   842.2    0.00 
 179   21:20   0.00   82.5    24    3.6   182     6.1   842.2    0.00 
 179   21:30   0.00   82.6    23    4.2   114     8.4   842.2    0.00 
 179   21:40   0.00   82.8    22    4.8    99     8.1   842.2    0.00 
 179   21:50   0.00   81.6    23    4.8   109     6.8   842.2    0.00 
 179   22:00   0.00   82.9    21    5.0   110     8.3   842.2    0.00 
 179   22:10   0.00   81.4    23    3.1   118     6.9   842.2    0.00 
 179   22:20   0.00   80.9    23    3.4   125     5.3   842.2    0.00 
 179   22:30   0.00   82.6    21    2.1   118     4.5   842.2    0.00 
 179   22:40   0.00   81.7    23    2.8   100     4.4   842.2    0.00 
 179   22:50   0.00   78.5    27    2.8    82     4.1   842.2    0.00 
 179   23:00   0.00   77.2    28    2.3   219     4.3   842.1    0.00 
 179   23:10   0.00   79.0    23    3.9   142     6.4   842.1    0.00 
 179   23:20   0.00   75.8    29    2.2   142     4.5   842.1    0.00 
 179   23:30   0.00   75.0    29    5.2   111     7.3   842.1    0.00 
 179   23:40   0.00   75.6    27    5.0   126     7.2   842.2    0.00 
 179   23:50   0.00   73.3    30    4.8   137     7.1   842.2    0.00 
 180    0:00   0.00   70.0    39    2.9   323     4.3   842.2    0.00 
 180    0:10   0.00   68.6    42    2.8   319     5.5   842.1    0.00 
 180    0:20   0.00   67.5    43    3.3   330     6.1   842.2    0.00 
 180    0:30   0.00   66.7    45    3.3   345     6.7   842.5    0.00 
 180    0:40   0.00   66.3    43    3.0   198     4.6   842.5    0.00 
 180    0:50   0.00   70.4    32    2.5   320     5.3   842.6    0.00 
 180    1:00   0.00   71.0    34    2.2    94     3.8   842.7    0.00 
 180    1:10   0.00   73.6    30    3.3   125     5.3   842.7    0.00 
 180    1:20   0.00   68.9    38    4.0   165     6.1   842.7    0.00 
 180    1:30   0.00   69.5    34    3.4   169     5.3   842.6    0.00 
 180    1:40   0.00   66.5    45    1.8   266     4.0   842.6    0.00 
 180    1:50   0.00   64.0    50    2.0   285     4.3   842.6    0.00 
 180    2:00   0.00   62.1    53    5.0   238     5.9   842.7    0.00 
 180    2:10   0.00   62.7    47    3.2   251     4.5   842.7    0.00 
 180    2:20   0.00   65.2    40    2.8   231     4.2   842.7    0.00 
 180    2:30   0.00   65.6    42    2.8   273     4.3   842.7    0.00 
 180    2:40   0.00   63.3    46    1.4   305     4.3   842.8    0.00 
 180    2:50   0.00   60.8    56    3.7   206     5.7   842.9    0.00 
 180    3:00   0.00   61.1    52    3.6   239     4.4   843.0    0.00 
 180    3:10   0.00   63.0    46    2.2   197     3.3   843.1    0.00 
 180    3:20   0.00   64.2    44    2.8   167     3.9   843.1    0.00 
 180    3:30   0.00   62.0    49    3.4   272     6.6   843.3    0.00 
 180    3:40   100.00  99999.0   99999  99999.0   99999   99999.0   99999.0   99999.00 
 180    3:50   0.00   61.8    50    2.9   215     4.5   843.5    0.00 
 180    4:00   0.00   61.2    52    3.0   209     4.5   843.7    0.00 
 180    4:10   0.00   56.0    65    3.6   236     4.7   843.7    0.00 
 180    4:20   0.01   57.2    60    3.5   235     4.5   843.8    0.00 
 180    4:30   0.02   56.8    64    3.0   247     4.3   843.8    0.00 
 180    4:40   0.03   60.2    54    2.8   224     3.9   843.8    0.00 
 180    4:50   0.05   58.1    65    2.9   246     3.9   843.9    0.00 
 180    5:00   0.08   61.9    50    3.3   239     5.4   844.1    0.00 
 180    5:10   0.11   66.3    42    1.8   192     3.3   844.2    0.00 
 180    5:20   0.14   68.0    39    2.5   166     3.7   844.2    0.00 
 180    5:30   0.15   69.6    38    2.0   202     3.6   844.3    0.00 
 180    5:40   0.18   70.6    35    3.8   181     5.3   844.2    0.00 
 180    5:50   0.20   72.0    37    3.3   172     4.3   844.1    0.00 
 180    6:00   0.21   73.4    38    2.8   155     4.1   844.2    0.00 
 180    6:10   0.23   75.4    34    3.0   168     5.0   844.1    0.00 
 180    6:20   0.27   77.0    33    2.9   151     4.8   844.0    0.00 
 180    6:30   0.34   77.0    34    5.3   142     8.3   844.0    0.00 
 180    6:40   0.38   78.4    31    6.9   154     9.8   844.0    0.00 
 180    6:50   0.41   80.4    28    7.1   157    11.5   844.2    0.00 
 180    7:00   0.43   80.1    29    7.0   149    10.3   844.2    0.00 
 180    7:10   0.47   80.8    30    4.4   149     6.5   844.1    0.00 
 180    7:20   0.51   83.5    27    3.2   147     5.0   844.1    0.00 
 180    7:30   0.53   83.5    28    5.0   142     7.1   844.3    0.00 
 180    7:40   0.56   84.4    26    4.8   144     7.8   844.4    0.00 
 180    7:50   0.52   85.7    25    3.9   144     6.2   844.2    0.00 
 180    8:00   0.54   85.2    26    6.4   136     9.0   844.2    0.00 
 180    8:10   0.59   85.4    28    6.2   146    10.2   844.2    0.00 
 180    8:20   0.66   86.3    26    6.3   138     8.8   844.2    0.00 
 180    8:30   0.65   87.6    24    6.7   134     9.7   844.1    0.00 
 180    8:40   0.72   88.8    24    6.1   130    10.7   844.2    0.00 
 180    8:50   0.73   90.1    19    5.8   138     9.8   844.3    0.00 
 180    9:00   0.77   91.1    19    5.6   102     9.4   844.3    0.00 
 180    9:10   0.80   92.4    16    3.9   132     8.2   844.3    0.00 
 180    9:20   0.83   93.2    16    4.0   139     8.1   844.2    0.00 
 180    9:30   0.85   93.7    16    3.9    94     8.4   844.2    0.00 
 180    9:40   0.87   93.5    18    4.3    98     7.7   844.2    0.00 
 180    9:50   0.89   93.8    17    4.3   124     7.4   844.1    0.00 
 180   10:00   0.91   94.3    16    2.9   139     7.2   844.1    0.00 
 180   10:10   0.93   96.2    16    2.2    52     5.4   844.0    0.00 
 180   10:20   0.95   96.1    13    3.4   140     7.3   843.9    0.00 
 180   10:30   0.96   96.2    13    2.2   254     4.7   843.8    0.00 
 180   10:40   0.97   97.0    14    2.6   113     7.2   843.8    0.00 
 180   10:50   0.98   95.9    14    4.2    80     8.2   843.7    0.00 
 180   11:00   0.98   97.4    12    1.6   129     3.2   843.6    0.00 
 180   11:10   1.00   97.6    12    3.0   175     6.9   843.5    0.00 
 180   11:20   1.00   98.7    11    1.9   182     3.6   843.3    0.00 
 180   11:30   1.03   98.7    13    2.8   103     7.1   843.3    0.00 
 180   11:40   1.04   96.6    14    5.3   154    10.6   843.2    0.00 
 180   11:50   1.04   96.4    16    3.3   276     6.1   843.1    0.00 
 180   12:00   1.04   97.4    14    2.6   214     7.2   843.1    0.00 
 180   12:10   1.06   98.7    13    6.5   160    13.4   843.0    0.00 
 180   12:20   1.06   99.1    12    6.6   191    12.0   842.8    0.00 
 180   12:30   1.05   98.6    14    6.1   151    11.0   842.7    0.00 
 180   12:40   1.06   98.3    12    7.6   165    14.6   842.6    0.00 
 180   12:50   1.05   99.1    15    3.8    78     9.5   842.5    0.00 
 180   13:00   1.02   99.9    11    5.1   178    10.7   842.3    0.00 
 180   13:10   1.00   99.2    12    7.4   166    14.0   842.2    0.00 
 180   13:20   0.98   98.6    13    5.5   200     9.5   842.1    0.00 
 180   13:30   0.97   98.0    15    7.7   100    16.1   842.0    0.00 
 180   13:40   0.94   98.8    13    5.0   108    10.5   841.9    0.00 
 180   13:50   0.91   98.1    18    4.9    33     9.7   841.7    0.00 
 180   14:00   0.89   99.0    13    4.0   151    10.6   841.6    0.00 
 180   14:10   0.91   98.4    15    6.6   157    11.0   841.5    0.00 
 180   14:20   0.88   98.0    13    6.5   132    13.2   841.5    0.00 
 180   14:30   0.86   99.4    14    4.5   158     7.4   841.4    0.00 
 180   14:40   0.45   99.4    14    3.1     1     5.0   841.2    0.00 
 180   14:50   0.24   95.5    18    4.1   216    13.7   841.2    0.00 
 180   15:00   0.20   94.4    14   15.8   195    24.0   841.2    0.00 
 180   15:10   0.17   93.2    15   17.5   207    23.5   841.4    0.00 
 180   15:20   0.17   90.5    18   16.8   217    23.9   841.5    0.00 
 180   15:30   0.20   86.7    22   15.4   231    24.7   841.7    0.00 
 180   15:40   0.44   85.5    24   16.3   244    24.5   841.7    0.00 

Return to Snake Valley graphs page.


Western Regional Climate Center,wrcc@dri.edu